| time (UTC) | temp C | wind direction | speed KPH | gust KPH | rain 1hr cm | rain 24hr cm | rain mn cm | humidity % | barometer mb |
| 20260905183059 | 13 | 247 | 0.0 | 0.0 | 0.20 | 0.66 | 0.00 | 85 | 1013.8 |
| 20260905182559 | 13 | 270 | 0.0 | 0.0 | 0.20 | 0.66 | 0.00 | 85 | 1013.8 |
| 20260905182059 | 13 | 225 | 0.0 | 1.6 | 0.20 | 0.66 | 0.00 | 85 | 1013.8 |
| 20260905181559 | 13 | 247 | 1.6 | 4.8 | 0.20 | 0.66 | 0.00 | 85 | 1013.5 |
| 20260905181058 | 13 | 270 | 0.0 | 1.6 | 0.20 | 0.66 | 0.00 | 84 | 1013.7 |
| 20260905180558 | 13 | 270 | 1.6 | 8.0 | 0.20 | 0.66 | 0.00 | 83 | 1013.5 |
| 20260905180058 | 13 | 292 | 3.2 | 8.0 | 0.10 | 0.61 | 0.00 | 81 | 1013.4 |
| 20260905175558 | 14 | 247 | 6.4 | 11.3 | 0.10 | 0.61 | 0.00 | 78 | 1013.5 |
| 20260905175057 | 16 | 270 | 11.3 | 17.7 | 0.05 | 0.56 | 0.00 | 74 | 1013.5 |
| 20260905174557 | 17 | 270 | 11.3 | 17.7 | 0.00 | 0.51 | 0.00 | 64 | 1013.3 |
| 20260905174057 | 18 | 270 | 3.2 | 3.2 | 0.00 | 0.51 | 0.00 | 59 | 1012.3 |
| 20260905173556 | 18 | 270 | 0.0 | 0.0 | 0.00 | 0.51 | 0.00 | 59 | 1011.8 |
| 20260905173056 | 18 | 0 | 0.0 | 0.0 | 0.00 | 0.51 | 0.00 | 58 | 1011.8 |
| 20260905172556 | 18 | 247 | 0.0 | 0.0 | 0.00 | 0.51 | 0.00 | 57 | 1011.7 |
| 20260905172056 | 18 | 225 | 0.0 | 4.8 | 0.00 | 0.51 | 0.00 | 57 | 1011.5 |
| 20260905171555 | 18 | 247 | 0.0 | 0.0 | 0.00 | 0.51 | 0.00 | 55 | 1011.4 |
| 20260905171055 | 18 | 112 | 0.0 | 0.0 | 0.00 | 0.51 | 0.00 | 55 | 1011.4 |
| 20260905170555 | 18 | 247 | 0.0 | 8.0 | 0.00 | 0.51 | 0.00 | 54 | 1011.3 |
| 20260905170055 | 19 | 270 | 8.0 | 8.0 | 0.00 | 0.51 | 0.00 | 54 | 1011.3 |
| 20260905165554 | 19 | 22 | 0.0 | 0.0 | 0.00 | 0.51 | 0.00 | 53 | 1011.2 |
| 20260905165054 | 19 | 180 | 0.0 | 9.7 | 0.00 | 0.51 | 0.00 | 52 | 1011.3 |
| 20260905164554 | 19 | 247 | 9.7 | 9.7 | 0.00 | 0.51 | 0.00 | 52 | 1011.3 |
| 20260905164054 | 19 | 315 | 1.6 | 9.7 | 0.00 | 0.51 | 0.00 | 52 | 1011.3 |
| 20260905163553 | 20 | 270 | 9.7 | 9.7 | 0.00 | 0.51 | 0.00 | 52 | 1011.3 |
| 20260905163053 | 20 | 270 | 0.0 | 0.0 | 0.00 | 0.51 | 0.00 | 52 | 1011.2 |
| 20260905162554 | 20 | 202 | 0.0 | 0.0 | 0.00 | 0.51 | 0.00 | 51 | 1011.3 |
| 20260905162053 | 20 | 270 | 0.0 | 16.1 | 0.00 | 0.51 | 0.00 | 51 | 1011.2 |
| 20260905161552 | 20 | 270 | 0.0 | 9.7 | 0.00 | 0.51 | 0.00 | 50 | 1011.1 |
| 20260905161052 | 20 | 135 | 9.7 | 9.7 | 0.00 | 0.51 | 0.00 | 50 | 1010.9 |
| 20260905160552 | 21 | 67 | 0.0 | 0.0 | 0.00 | 0.51 | 0.00 | 49 | 1010.9 |
| 20260905160052 | 21 | 247 | 0.0 | 0.0 | 0.00 | 0.51 | 0.00 | 49 | 1010.9 |
| 20260905155551 | 21 | 270 | 0.0 | 12.9 | 0.00 | 0.51 | 0.00 | 49 | 1010.8 |
| 20260905155051 | 21 | 202 | 12.9 | 12.9 | 0.00 | 0.51 | 0.00 | 48 | 1011.0 |
| 20260905154551 | 21 | 202 | 0.0 | 0.0 | 0.00 | 0.51 | 0.00 | 48 | 1010.9 |
| 20260905154050 | 21 | 270 | 0.0 | 0.0 | 0.00 | 0.51 | 0.00 | 48 | 1010.9 |
| 20260905153550 | 21 | 45 | 0.0 | 0.0 | 0.00 | 0.51 | 0.00 | 48 | 1010.7 |
| 20260905153050 | 21 | 247 | 0.0 | 0.0 | 0.00 | 0.51 | 0.00 | 47 | 1010.7 |
| 20260905152550 | 21 | 90 | 0.0 | 11.3 | 0.00 | 0.51 | 0.00 | 46 | 1010.6 |
| 20260905152049 | 21 | 157 | 0.0 | 4.8 | 0.00 | 0.51 | 0.00 | 46 | 1010.7 |
| 20260905151549 | 22 | 292 | 0.0 | 9.7 | 0.00 | 0.51 | 0.00 | 45 | 1010.7 |
| 20260905151049 | 23 | 292 | 9.7 | 9.7 | 0.00 | 0.51 | 0.00 | 44 | 1010.6 |
| 20260905150549 | 23 | 225 | 9.7 | 9.7 | 0.00 | 0.51 | 0.00 | 44 | 1010.7 |
| 20260905150048 | 23 | 67 | 0.0 | 0.0 | 0.00 | 0.51 | 0.00 | 45 | 1010.7 |
| 20260905145548 | 22 | 45 | 0.0 | 0.0 | 0.00 | 0.51 | 0.00 | 45 | 1010.6 |
| 20260905145048 | 22 | 180 | 0.0 | 8.0 | 0.00 | 0.51 | 0.00 | 45 | 1010.8 |
| 20260905144548 | 22 | 202 | 8.0 | 8.0 | 0.00 | 0.51 | 0.00 | 46 | 1010.6 |
| 20260905144047 | 22 | 135 | 8.0 | 8.0 | 0.00 | 0.51 | 0.00 | 46 | 1010.6 |
| 20260905143547 | 22 | 157 | 0.0 | 1.6 | 0.00 | 0.51 | 0.00 | 45 | 1010.7 |
| 20260905143047 | 22 | 157 | 0.0 | 9.7 | 0.00 | 0.51 | 0.00 | 46 | 1010.7 |
| 20260905142546 | 22 | 225 | 9.7 | 9.7 | 0.00 | 0.51 | 0.00 | 46 | 1010.5 |
| 20260905142046 | 22 | 292 | 6.4 | 6.4 | 0.00 | 0.51 | 0.00 | 46 | 1010.5 |
| 20260905141546 | 22 | 292 | 6.4 | 6.4 | 0.00 | 0.51 | 0.00 | 46 | 1010.5 |
| 20260905141046 | 22 | 270 | 6.4 | 19.3 | 0.00 | 0.51 | 0.00 | 45 | 1010.5 |
| 20260905140545 | 22 | 225 | 19.3 | 19.3 | 0.00 | 0.51 | 0.00 | 45 | 1010.5 |
| 20260905140045 | 23 | 292 | 14.5 | 14.5 | 0.00 | 0.51 | 0.00 | 44 | 1010.5 |
| 20260905135545 | 23 | 157 | 0.0 | 4.8 | 0.00 | 0.51 | 0.00 | 46 | 1010.5 |
| 20260905135045 | 22 | 67 | 0.0 | 6.4 | 0.00 | 0.51 | 0.00 | 45 | 1010.6 |
| 20260905134544 | 22 | 247 | 6.4 | 14.5 | 0.00 | 0.51 | 0.00 | 46 | 1010.7 |
| 20260905134044 | 22 | 157 | 14.5 | 14.5 | 0.00 | 0.51 | 0.00 | 46 | 1010.7 |
| 20260905133544 | 22 | 225 | 0.0 | 0.0 | 0.00 | 0.51 | 0.00 | 46 | 1010.6 |
| 20260905133044 | 22 | 225 | 0.0 | 0.0 | 0.00 | 0.51 | 0.00 | 46 | 1010.6 |
| 20260905132543 | 23 | 135 | 0.0 | 9.7 | 0.00 | 0.51 | 0.00 | 45 | 1010.7 |
| 20260905132043 | 23 | 157 | 9.7 | 22.5 | 0.00 | 0.51 | 0.00 | 45 | 1010.7 |
| 20260905131543 | 23 | 270 | 22.5 | 22.5 | 0.00 | 0.51 | 0.00 | 45 | 1010.7 |
| 20260905131042 | 23 | 247 | 6.4 | 9.7 | 0.00 | 0.51 | 0.00 | 46 | 1010.5 |
| 20260905130542 | 23 | 180 | 9.7 | 22.5 | 0.00 | 0.51 | 0.00 | 45 | 1010.6 |
| 20260905130042 | 23 | 202 | 22.5 | 22.5 | 0.00 | 0.51 | 0.00 | 45 | 1010.6 |
| 20260905125542 | 24 | 90 | 0.0 | 8.0 | 0.00 | 0.51 | 0.00 | 45 | 1010.6 |
| 20260905125041 | 24 | 337 | 8.0 | 11.3 | 0.00 | 0.51 | 0.00 | 45 | 1010.6 |
| 20260905124541 | 24 | 202 | 11.3 | 11.3 | 0.00 | 0.51 | 0.00 | 44 | 1010.7 |
| 20260905124041 | 24 | 270 | 11.3 | 11.3 | 0.00 | 0.51 | 0.00 | 44 | 1010.8 |
| 20260905123541 | 23 | 225 | 0.0 | 9.7 | 0.00 | 0.51 | 0.00 | 45 | 1010.7 |
| 20260905123040 | 23 | 180 | 9.7 | 16.1 | 0.00 | 0.51 | 0.00 | 44 | 1010.7 |
| 20260905122540 | 25 | 135 | 16.1 | 16.1 | 0.00 | 0.51 | 0.00 | 42 | 1010.9 |
| 20260905122040 | 24 | 247 | 11.3 | 11.3 | 0.00 | 0.51 | 0.00 | 48 | 1010.8 |
| 20260905121540 | 23 | 202 | 0.0 | 8.0 | 0.00 | 0.51 | 0.00 | 47 | 1010.9 |
| 20260905121039 | 23 | 180 | 8.0 | 8.0 | 0.00 | 0.51 | 0.00 | 48 | 1011.2 |
| 20260905120539 | 22 | 292 | 8.0 | 8.0 | 0.00 | 0.51 | 0.00 | 48 | 1011.2 |
| 20260905120039 | 22 | 112 | 0.0 | 0.0 | 0.00 | 0.51 | 0.00 | 49 | 1011.2 |
| 20260905115538 | 22 | 337 | 0.0 | 11.3 | 0.00 | 0.51 | 0.00 | 48 | 1011.4 |
| 20260905115038 | 23 | 270 | 0.0 | 0.0 | 0.00 | 0.51 | 0.00 | 49 | 1011.3 |
| 20260905114538 | 23 | 270 | 0.0 | 8.0 | 0.00 | 0.51 | 0.00 | 49 | 1011.4 |
| 20260905114038 | 22 | 247 | 8.0 | 8.0 | 0.00 | 0.51 | 0.00 | 50 | 1011.4 |
| 20260905113537 | 22 | 247 | 4.8 | 11.3 | 0.00 | 0.51 | 0.00 | 48 | 1011.5 |
| 20260905113037 | 22 | 247 | 0.0 | 9.7 | 0.00 | 0.51 | 0.00 | 46 | 1011.5 |
| 20260905112537 | 24 | 270 | 4.8 | 4.8 | 0.00 | 0.51 | 0.00 | 44 | 1011.4 |
| 20260905112037 | 25 | 157 | 0.0 | 0.0 | 0.00 | 0.51 | 0.00 | 45 | 1011.4 |
| 20260905111536 | 25 | 135 | 0.0 | 9.7 | 0.00 | 0.51 | 0.00 | 43 | 1011.4 |
| 20260905111036 | 25 | 202 | 9.7 | 9.7 | 0.00 | 0.51 | 0.00 | 45 | 1011.3 |
| 20260905110536 | 25 | 202 | 0.0 | 0.0 | 0.00 | 0.51 | 0.00 | 44 | 1011.1 |
| 20260905110036 | 25 | 90 | 0.0 | 6.4 | 0.00 | 0.51 | 0.00 | 47 | 1011.0 |
| 20260905105535 | 25 | 247 | 0.0 | 8.0 | 0.00 | 0.51 | 0.00 | 46 | 1011.1 |
| 20260905105035 | 24 | 202 | 8.0 | 8.0 | 0.00 | 0.51 | 0.00 | 46 | 1011.2 |
| 20260905104535 | 25 | 0 | 0.0 | 3.2 | 0.00 | 0.51 | 0.00 | 46 | 1011.3 |
| 20260905104035 | 25 | 247 | 3.2 | 12.9 | 0.00 | 0.51 | 0.00 | 48 | 1011.2 |
| 20260905103534 | 23 | 112 | 0.0 | 0.0 | 0.00 | 0.51 | 0.00 | 49 | 1011.2 |
| 20260905103034 | 23 | 270 | 0.0 | 8.0 | 0.00 | 0.51 | 0.00 | 53 | 1011.2 |
| 20260905102534 | 22 | 247 | 0.0 | 19.3 | 0.00 | 0.51 | 0.00 | 55 | 1011.2 |
| 20260905102033 | 22 | 270 | 0.0 | 4.8 | 0.00 | 0.51 | 0.00 | 52 | 1011.3 |
| 20260905101533 | 22 | 270 | 4.8 | 4.8 | 0.00 | 0.51 | 0.00 | 50 | 1011.2 |
| 20260905101033 | 23 | 270 | 4.8 | 6.4 | 0.00 | 0.51 | 0.00 | 51 | 1011.3 |
| 20260905100533 | 24 | 292 | 3.2 | 4.8 | 0.00 | 0.51 | 0.00 | 48 | 1011.1 |
| 20260905100032 | 25 | 292 | 0.0 | 0.0 | 0.00 | 0.51 | 0.00 | 50 | 1011.0 |
| 20260905095532 | 24 | 0 | 0.0 | 3.2 | 0.00 | 0.51 | 0.00 | 52 | 1010.8 |
| 20260905095032 | 22 | 180 | 0.0 | 0.0 | 0.00 | 0.51 | 0.00 | 54 | 1010.9 |
| 20260905094532 | 22 | 315 | 0.0 | 0.0 | 0.00 | 0.51 | 0.00 | 57 | 1010.8 |
| 20260905094031 | 21 | 270 | 0.0 | 4.8 | 0.00 | 0.51 | 0.00 | 57 | 1010.8 |
| 20260905093531 | 21 | 292 | 4.8 | 4.8 | 0.00 | 0.51 | 0.00 | 55 | 1010.9 |
| 20260905093031 | 22 | 247 | 0.0 | 8.0 | 0.00 | 0.51 | 0.00 | 54 | 1010.9 |
| 20260905092531 | 22 | 180 | 8.0 | 8.0 | 0.00 | 0.51 | 0.00 | 54 | 1010.7 |
| 20260905092030 | 22 | 247 | 6.4 | 8.0 | 0.00 | 0.51 | 0.00 | 56 | 1011.0 |
| 20260905091530 | 21 | 270 | 8.0 | 9.7 | 0.00 | 0.51 | 0.00 | 57 | 1011.0 |
| 20260905091030 | 21 | 225 | 0.0 | 19.3 | 0.00 | 0.51 | 0.00 | 55 | 1011.2 |
| 20260905090530 | 22 | 247 | 19.3 | 19.3 | 0.00 | 0.51 | 0.00 | 52 | 1011.1 |
| 20260905090029 | 23 | 135 | 3.2 | 9.7 | 0.00 | 0.51 | 0.00 | 48 | 1011.0 |
| 20260905085529 | 25 | 247 | 0.0 | 9.7 | 0.00 | 0.51 | 0.00 | 50 | 1011.1 |
| 20260905085029 | 25 | 22 | 1.6 | 11.3 | 0.00 | 0.51 | 0.00 | 50 | 1011.1 |
| 20260905084528 | 25 | 67 | 0.0 | 11.3 | 0.00 | 0.51 | 0.00 | 49 | 1011.0 |
| 20260905084028 | 25 | 292 | 11.3 | 11.3 | 0.00 | 0.51 | 0.00 | 51 | 1010.9 |
| 20260905083528 | 24 | 270 | 9.7 | 9.7 | 0.00 | 0.51 | 0.00 | 52 | 1011.0 |
| 20260905083028 | 23 | 202 | 0.0 | 8.0 | 0.00 | 0.51 | 0.00 | 55 | 1011.0 |
| 20260905082527 | 22 | 67 | 0.0 | 8.0 | 0.00 | 0.51 | 0.00 | 57 | 1011.0 |
| 20260905082027 | 22 | 270 | 0.0 | 1.6 | 0.00 | 0.51 | 0.00 | 57 | 1011.0 |
| 20260905081527 | 22 | 247 | 1.6 | 9.7 | 0.00 | 0.51 | 0.00 | 56 | 1010.9 |
| 20260905070642 | 22 | 270 | 4.8 | 6.4 | 0.00 | 0.51 | 0.00 | 62 | 1010.2 |
| 20260905070142 | 22 | 247 | 6.4 | 9.7 | 0.00 | 0.51 | 0.00 | 62 | 1010.1 |
| 20260905065642 | 22 | 225 | 9.7 | 17.7 | 0.00 | 0.51 | 0.00 | 62 | 1010.1 |
| 20260905065141 | 22 | 157 | 17.7 | 17.7 | 0.00 | 0.51 | 0.00 | 62 | 1010.2 |
| 20260905064641 | 21 | 112 | 0.0 | 1.6 | 0.00 | 0.51 | 0.00 | 64 | 1010.2 |
| 20260905064141 | 21 | 67 | 0.0 | 8.0 | 0.00 | 0.51 | 0.00 | 65 | 1010.3 |
| 20260905063641 | 21 | 270 | 0.0 | 9.7 | 0.00 | 0.51 | 0.00 | 65 | 1010.1 |
| 20260905063140 | 21 | 225 | 0.0 | 8.0 | 0.00 | 0.51 | 0.00 | 65 | 1010.2 |
| 20260905062640 | 22 | 247 | 0.0 | 0.0 | 0.00 | 0.51 | 0.00 | 66 | 1009.9 |
| 20260905062140 | 22 | 202 | 0.0 | 0.0 | 0.00 | 0.51 | 0.00 | 68 | 1010.0 |
| 20260905061640 | 21 | 67 | 0.0 | 0.0 | 0.00 | 0.51 | 0.00 | 69 | 1010.0 |
| 20260905061139 | 21 | 247 | 0.0 | 11.3 | 0.00 | 0.51 | 0.00 | 70 | 1009.9 |
| 20260905060639 | 21 | 180 | 11.3 | 12.9 | 0.00 | 0.51 | 0.00 | 71 | 1009.9 |
| 20260905060139 | 21 | 180 | 12.9 | 12.9 | 0.00 | 0.51 | 0.00 | 73 | 1010.0 |
| 20260905055638 | 21 | 157 | 0.0 | 0.0 | 0.00 | 0.51 | 0.00 | 77 | 1009.9 |
| 20260905055138 | 20 | 157 | 0.0 | 6.4 | 0.00 | 0.51 | 0.00 | 79 | 1009.9 |
| 20260905054638 | 20 | 112 | 6.4 | 6.4 | 0.00 | 0.51 | 0.00 | 82 | 1009.9 |
| 20260905054138 | 18 | 180 | 0.0 | 8.0 | 0.00 | 0.51 | 0.00 | 84 | 1009.6 |
| 20260905053637 | 18 | 157 | 0.0 | 6.4 | 0.00 | 0.51 | 0.00 | 87 | 1009.7 |
| 20260905053137 | 17 | 157 | 0.0 | 9.7 | 0.00 | 0.51 | 0.00 | 91 | 1009.7 |
| 20260905052637 | 16 | 180 | 0.0 | 0.0 | 0.00 | 0.51 | 0.00 | 91 | 1009.7 |
| 20260905052137 | 15 | 247 | 0.0 | 0.0 | 0.00 | 0.51 | 0.00 | 91 | 1009.7 |
| 20260905051636 | 15 | 247 | 0.0 | 0.0 | 0.00 | 0.51 | 0.00 | 91 | 1009.6 |
| 20260905051136 | 15 | 247 | 0.0 | 0.0 | 0.00 | 0.51 | 0.00 | 91 | 1009.4 |
| 20260905050636 | 15 | 270 | 0.0 | 0.0 | 0.00 | 0.51 | 0.00 | 92 | 1009.2 |
| 20260905050136 | 13 | 292 | 0.0 | 0.0 | 0.00 | 0.51 | 0.00 | 92 | 1009.2 |
| 20260905045635 | 13 | 292 | 0.0 | 0.0 | 0.00 | 0.51 | 0.00 | 91 | 1009.1 |
| 20260905045135 | 13 | 135 | 0.0 | 0.0 | 0.00 | 0.51 | 0.00 | 91 | 1009.2 |
| 20260905044635 | 13 | 135 | 0.0 | 0.0 | 0.00 | 0.51 | 0.00 | 91 | 1009.0 |
| 20260905044134 | 14 | 135 | 0.0 | 0.0 | 0.00 | 0.51 | 0.00 | 91 | 1009.1 |
| 20260905043635 | 14 | 337 | 0.0 | 0.0 | 0.00 | 0.51 | 0.00 | 91 | 1009.0 |
| 20260905043134 | 14 | 0 | 0.0 | 0.0 | 0.00 | 0.51 | 0.00 | 91 | 1008.9 |
| 20260905042634 | 14 | 135 | 0.0 | 0.0 | 0.00 | 0.51 | 0.00 | 91 | 1008.9 |
| 20260905041633 | 14 | 270 | 0.0 | 0.0 | 0.00 | 0.51 | 0.00 | 91 | 1008.7 |
| 20260905041133 | 14 | 292 | 0.0 | 0.0 | 0.00 | 0.51 | 0.00 | 91 | 1008.8 |
| 20260905040633 | 15 | 225 | 0.0 | 0.0 | 0.00 | 0.51 | 0.00 | 90 | 1008.6 |
| 20260905040132 | 15 | 67 | 0.0 | 0.0 | 0.00 | 0.51 | 0.00 | 90 | 1008.5 |
| 20260905035632 | 15 | 67 | 0.0 | 0.0 | 0.00 | 0.51 | 0.00 | 90 | 1008.3 |
| 20260905035132 | 15 | 22 | 0.0 | 0.0 | 0.00 | 0.51 | 0.00 | 90 | 1008.2 |
| 20260905034632 | 15 | 247 | 0.0 | 0.0 | 0.00 | 0.51 | 0.00 | 91 | 1008.1 |
| 20260905034131 | 15 | 247 | 0.0 | 0.0 | 0.00 | 0.51 | 0.00 | 91 | 1008.3 |
| 20260905033631 | 15 | 337 | 0.0 | 0.0 | 0.00 | 0.51 | 0.00 | 91 | 1008.4 |
| 20260905033131 | 15 | 112 | 0.0 | 0.0 | 0.00 | 0.51 | 0.00 | 91 | 1008.3 |
| 20260905032630 | 15 | 112 | 0.0 | 0.0 | 0.00 | 0.51 | 0.00 | 91 | 1008.4 |
| 20260905032130 | 15 | 292 | 0.0 | 0.0 | 0.00 | 0.51 | 0.00 | 91 | 1008.1 |
| 20260905031630 | 15 | 202 | 0.0 | 0.0 | 0.00 | 0.51 | 0.00 | 91 | 1008.0 |
| 20260905031130 | 15 | 292 | 0.0 | 0.0 | 0.00 | 0.51 | 0.00 | 91 | 1008.0 |
| 20260905030629 | 15 | 315 | 0.0 | 0.0 | 0.00 | 0.51 | 0.00 | 91 | 1008.0 |
| 20260905030129 | 15 | 247 | 0.0 | 0.0 | 0.00 | 0.51 | 0.00 | 91 | 1007.9 |
| 20260905025629 | 15 | 225 | 0.0 | 0.0 | 0.00 | 0.51 | 0.00 | 91 | 1007.6 |
| 20260905025129 | 15 | 247 | 0.0 | 0.0 | 0.00 | 0.51 | 0.00 | 91 | 1007.6 |
| 20260905024628 | 15 | 157 | 0.0 | 0.0 | 0.00 | 0.51 | 0.00 | 91 | 1007.4 |
| 20260905024128 | 15 | 157 | 0.0 | 0.0 | 0.00 | 0.51 | 0.00 | 91 | 1007.3 |
| 20260905023628 | 15 | 270 | 0.0 | 0.0 | 0.00 | 0.51 | 0.00 | 91 | 1007.4 |
| 20260905023128 | 15 | 202 | 0.0 | 0.0 | 0.00 | 0.51 | 0.00 | 91 | 1007.3 |
| 20260905022627 | 15 | 270 | 0.0 | 1.6 | 0.00 | 0.51 | 0.00 | 91 | 1007.1 |
| 20260905022127 | 15 | 315 | 0.0 | 0.0 | 0.00 | 0.51 | 0.00 | 91 | 1007.0 |
| 20260905021627 | 15 | 247 | 0.0 | 0.0 | 0.00 | 0.51 | 0.00 | 92 | 1007.0 |
| 20260905021127 | 15 | 270 | 0.0 | 0.0 | 0.00 | 0.51 | 0.00 | 92 | 1007.1 |
| 20260905020626 | 15 | 135 | 0.0 | 0.0 | 0.00 | 0.51 | 0.00 | 92 | 1007.0 |
| 20260905020126 | 15 | 180 | 0.0 | 0.0 | 0.00 | 0.51 | 0.00 | 92 | 1006.6 |
| 20260905015626 | 15 | 270 | 0.0 | 0.0 | 0.00 | 0.51 | 0.00 | 92 | 1007.0 |
| 20260905015125 | 15 | 22 | 0.0 | 0.0 | 0.00 | 0.51 | 0.00 | 92 | 1006.8 |
| 20260905014625 | 15 | 247 | 0.0 | 0.0 | 0.00 | 0.51 | 0.00 | 93 | 1006.7 |
| 20260905014125 | 15 | 247 | 0.0 | 3.2 | 0.00 | 0.51 | 0.00 | 93 | 1006.6 |
| 20260905013625 | 15 | 157 | 3.2 | 6.4 | 0.00 | 0.51 | 0.00 | 93 | 1006.4 |
| 20260905013124 | 15 | 0 | 0.0 | 0.0 | 0.00 | 0.51 | 0.00 | 93 | 1006.7 |
| 20260905012624 | 15 | 0 | 0.0 | 0.0 | 0.00 | 0.51 | 0.00 | 93 | 1007.1 |
| 20260905012124 | 15 | 90 | 0.0 | 3.2 | 0.00 | 0.51 | 0.00 | 93 | 1007.3 |
| 20260905011624 | 15 | 0 | 0.0 | 0.0 | 0.00 | 0.51 | 0.00 | 93 | 1006.9 |
| 20260905011123 | 15 | 202 | 0.0 | 0.0 | 0.00 | 0.51 | 0.00 | 93 | 1006.6 |
| 20260905010623 | 15 | 180 | 0.0 | 0.0 | 0.00 | 0.51 | 0.00 | 93 | 1006.3 |
| 20260905010123 | 15 | 180 | 0.0 | 0.0 | 0.00 | 0.51 | 0.00 | 93 | 1006.5 |
| 20260905005623 | 15 | 270 | 0.0 | 0.0 | 0.00 | 0.51 | 0.00 | 93 | 1006.5 |
| 20260905005122 | 15 | 135 | 0.0 | 0.0 | 0.00 | 0.51 | 0.00 | 93 | 1006.3 |
| 20260905004622 | 15 | 180 | 0.0 | 4.8 | 0.00 | 0.51 | 0.00 | 93 | 1006.0 |
| 20260905004122 | 15 | 157 | 0.0 | 0.0 | 0.00 | 0.51 | 0.00 | 93 | 1006.3 |
| 20260905003622 | 15 | 247 | 0.0 | 0.0 | 0.00 | 0.51 | 0.00 | 93 | 1006.6 |
| 20260905003121 | 15 | 67 | 0.0 | 0.0 | 0.00 | 0.51 | 0.00 | 93 | 1006.4 |
| 20260905002621 | 15 | 180 | 0.0 | 0.0 | 0.00 | 0.51 | 0.00 | 93 | 1006.6 |
| 20260905002121 | 15 | 247 | 0.0 | 0.0 | 0.00 | 0.51 | 0.00 | 93 | 1006.9 |
| 20260905001620 | 15 | 202 | 0.0 | 0.0 | 0.00 | 0.51 | 0.00 | 93 | 1006.7 |
| 20260905001120 | 15 | 225 | 0.0 | 0.0 | 0.00 | 0.51 | 0.00 | 93 | 1006.5 |
| 20260905000620 | 15 | 247 | 0.0 | 0.0 | 0.00 | 0.51 | 0.00 | 93 | 1006.3 |
| 20260905000120 | 15 | 247 | 0.0 | 0.0 | 0.00 | 0.51 | 0.00 | 93 | 1006.3 |
| 20260904235619 | 15 | 135 | 0.0 | 12.9 | 0.00 | 0.51 | 0.00 | 93 | 1006.3 |
| 20260904235119 | 15 | 180 | 0.0 | 12.9 | 0.00 | 0.51 | 0.00 | 93 | 1006.3 |
| 20260904234619 | 15 | 157 | 12.9 | 12.9 | 0.00 | 0.51 | 0.00 | 93 | 1006.1 |
| 20260904234119 | 15 | 270 | 0.0 | 0.0 | 0.00 | 0.51 | 0.00 | 93 | 1006.1 |
| 20260904233618 | 15 | 180 | 0.0 | 0.0 | 0.05 | 0.51 | 0.00 | 93 | 1005.9 |
| 20260904233118 | 15 | 180 | 0.0 | 0.0 | 0.05 | 0.51 | 0.00 | 93 | 1005.9 |
| 20260904232618 | 15 | 337 | 0.0 | 0.0 | 0.05 | 0.51 | 0.00 | 93 | 1006.3 |
| 20260904232118 | 15 | 67 | 0.0 | 0.0 | 0.05 | 0.51 | 0.00 | 93 | 1006.2 |
| 20260904231617 | 15 | 180 | 0.0 | 0.0 | 0.05 | 0.51 | 0.00 | 93 | 1006.2 |
| 20260904231117 | 15 | 337 | 0.0 | 0.0 | 0.05 | 0.51 | 0.00 | 93 | 1006.2 |
| 20260904230617 | 15 | 202 | 0.0 | 3.2 | 0.05 | 0.51 | 0.00 | 93 | 1005.9 |
| 20260904230117 | 15 | 157 | 0.0 | 3.2 | 0.10 | 0.51 | 0.00 | 93 | 1005.4 |
| 20260904225616 | 15 | 157 | 3.2 | 3.2 | 0.10 | 0.51 | 0.00 | 93 | 1005.5 |
| 20260904225116 | 15 | 202 | 0.0 | 0.0 | 0.10 | 0.51 | 0.00 | 93 | 1005.4 |
| 20260904224616 | 15 | 270 | 0.0 | 0.0 | 0.10 | 0.51 | 0.00 | 93 | 1005.3 |
| 20260904224115 | 15 | 67 | 0.0 | 0.0 | 0.10 | 0.51 | 0.00 | 93 | 1005.1 |
| 20260904223615 | 15 | 157 | 0.0 | 0.0 | 0.05 | 0.46 | 0.00 | 93 | 1005.4 |
| 20260904223115 | 15 | 112 | 0.0 | 0.0 | 0.05 | 0.46 | 0.00 | 93 | 1005.3 |
| 20260904222615 | 15 | 157 | 0.0 | 11.3 | 0.10 | 0.46 | 0.00 | 92 | 1005.6 |
| 20260904222114 | 15 | 157 | 11.3 | 12.9 | 0.10 | 0.46 | 0.00 | 92 | 1005.6 |
| 20260904221614 | 15 | 180 | 0.0 | 8.0 | 0.10 | 0.46 | 0.00 | 92 | 1005.3 |
| 20260904221114 | 15 | 157 | 8.0 | 8.0 | 0.15 | 0.46 | 0.00 | 92 | 1005.4 |
| 20260904220614 | 15 | 202 | 0.0 | 4.8 | 0.10 | 0.41 | 0.00 | 92 | 1005.1 |
| 20260904220113 | 15 | 157 | 0.0 | 6.4 | 0.15 | 0.41 | 0.00 | 92 | 1005.1 |
| 20260904215613 | 15 | 112 | 0.0 | 0.0 | 0.20 | 0.41 | 0.00 | 92 | 1005.3 |
| 20260904215113 | 15 | 270 | 0.0 | 9.7 | 0.20 | 0.41 | 0.00 | 91 | 1005.1 |
| 20260904214613 | 15 | 157 | 0.0 | 6.4 | 0.20 | 0.41 | 0.00 | 91 | 1005.0 |
| 20260904214112 | 15 | 202 | 0.0 | 12.9 | 0.20 | 0.41 | 0.00 | 91 | 1004.9 |
| 20260904213612 | 15 | 180 | 1.6 | 3.2 | 0.20 | 0.41 | 0.00 | 91 | 1004.9 |
| 20260904213112 | 15 | 180 | 3.2 | 16.1 | 0.15 | 0.36 | 0.00 | 91 | 1005.0 |
| 20260904212611 | 15 | 247 | 0.0 | 0.0 | 0.15 | 0.36 | 0.00 | 90 | 1005.0 |
| 20260904212111 | 15 | 225 | 0.0 | 0.0 | 0.20 | 0.36 | 0.00 | 90 | 1005.2 |
| 20260904211611 | 15 | 180 | 0.0 | 0.0 | 0.20 | 0.36 | 0.00 | 90 | 1004.9 |
| 20260904211111 | 15 | 180 | 0.0 | 6.4 | 0.15 | 0.30 | 0.00 | 90 | 1005.1 |
| 20260904210610 | 15 | 202 | 6.4 | 6.4 | 0.10 | 0.25 | 0.00 | 90 | 1005.0 |
| 20260904210110 | 15 | 157 | 4.8 | 12.9 | 0.10 | 0.25 | 0.00 | 89 | 1004.7 |
| 20260904205610 | 15 | 157 | 12.9 | 12.9 | 0.10 | 0.20 | 0.00 | 89 | 1005.5 |
| 20260904205110 | 16 | 157 | 1.6 | 1.6 | 0.10 | 0.20 | 0.00 | 88 | 1005.1 |
| 20260904204609 | 16 | 157 | 0.0 | 0.0 | 0.10 | 0.20 | 0.00 | 88 | 1005.3 |
| 20260904204109 | 16 | 180 | 0.0 | 0.0 | 0.10 | 0.20 | 0.00 | 87 | 1005.3 |
| 20260904203609 | 16 | 247 | 0.0 | 0.0 | 0.15 | 0.20 | 0.00 | 87 | 1005.2 |
| 20260904203109 | 16 | 112 | 0.0 | 0.0 | 0.15 | 0.20 | 0.00 | 86 | 1005.4 |
| 20260904202608 | 16 | 45 | 0.0 | 0.0 | 0.15 | 0.20 | 0.00 | 86 | 1005.4 |
| 20260904202108 | 16 | 67 | 0.0 | 0.0 | 0.10 | 0.15 | 0.00 | 85 | 1005.7 |
| 20260904201608 | 16 | 22 | 0.0 | 0.0 | 0.10 | 0.15 | 0.00 | 84 | 1005.7 |
| 20260904201108 | 16 | 315 | 0.0 | 0.0 | 0.10 | 0.15 | 0.00 | 84 | 1005.6 |
| 20260904200607 | 16 | 225 | 0.0 | 0.0 | 0.10 | 0.15 | 0.00 | 84 | 1004.9 |
| 20260904200107 | 16 | 270 | 0.0 | 3.2 | 0.10 | 0.15 | 0.00 | 84 | 1005.0 |
| 20260904195607 | 16 | 270 | 0.0 | 6.4 | 0.05 | 0.10 | 0.00 | 83 | 1005.0 |
| 20260904195106 | 16 | 247 | 0.0 | 0.0 | 0.05 | 0.10 | 0.00 | 82 | 1004.9 |
| 20260904194606 | 17 | 270 | 0.0 | 0.0 | 0.05 | 0.10 | 0.00 | 81 | 1005.4 |
| 20260904194106 | 17 | 247 | 0.0 | 8.0 | 0.05 | 0.10 | 0.00 | 79 | 1005.7 |
| 20260904193606 | 17 | 225 | 8.0 | 8.0 | 0.00 | 0.05 | 0.00 | 78 | 1005.4 |
| 20260904193105 | 18 | 225 | 0.0 | 6.4 | 0.00 | 0.05 | 0.00 | 76 | 1005.2 |
| 20260904192605 | 18 | 270 | 6.4 | 30.6 | 0.00 | 0.05 | 0.00 | 72 | 1005.1 |
| 20260904192105 | 21 | 247 | 16.1 | 17.7 | 0.05 | 0.05 | 0.00 | 65 | 1005.3 |
| 20260904191605 | 21 | 292 | 6.4 | 9.7 | 0.05 | 0.05 | 0.00 | 64 | 1004.0 |
| 20260904191104 | 21 | 225 | 0.0 | 9.7 | 0.05 | 0.05 | 0.00 | 64 | 1003.9 |
| 20260904190604 | 21 | 270 | 9.7 | 14.5 | 0.05 | 0.05 | 0.00 | 63 | 1003.8 |
| 20260904190104 | 21 | 247 | 14.5 | 14.5 | 0.05 | 0.05 | 0.00 | 63 | 1003.7 |
| 20260904185604 | 22 | 270 | 0.0 | 12.9 | 0.05 | 0.05 | 0.00 | 63 | 1003.5 |
| 20260904185103 | 22 | 247 | 12.9 | 20.9 | 0.05 | 0.05 | 0.00 | 63 | 1003.3 |
| 20260904184603 | 22 | 247 | 20.9 | 20.9 | 0.05 | 0.05 | 0.00 | 65 | 1003.4 |
| 20260904184103 | 22 | 270 | 16.1 | 16.1 | 0.05 | 0.05 | 0.00 | 68 | 1003.6 |
| 20260904183603 | 22 | 292 | 11.3 | 16.1 | 0.05 | 0.05 | 0.00 | 69 | 1003.2 |